Time,TemperatureF,DewpointF,PressureIn,WindDirection,WindDirectionDegrees,WindSpeedMPH,WindSpeedGustMPH,Humidity,HourlyPrecipIn,Conditions,Clouds,dailyrainin,SoftwareType,DateUTC
2013-01-13 00:03:00,21.5,13.0,30.22,SE,131,2.0,3.0,71,0.00,,,0.00,weatherlink.com 1.10,2013-01-13 08:03:00,
2013-01-13 00:18:00,22.1,12.0,30.22,SE,134,2.0,4.0,66,0.00,,,0.00,weatherlink.com 1.10,2013-01-13 08:18:00,
2013-01-13 00:33:00,22.0,14.0,30.22,SE,127,1.0,3.0,70,0.00,,,0.00,weatherlink.com 1.10,2013-01-13 08:33:00,
2013-01-13 00:48:00,21.8,12.0,30.22,SE,145,2.0,3.0,67,0.00,,,0.00,weatherlink.com 1.10,2013-01-13 08:48:00,
2013-01-13 01:03:00,21.4,12.0,30.22,ESE,122,1.0,2.0,68,0.00,,,0.00,weatherlink.com 1.10,2013-01-13 09:03:00,
2013-01-13 01:18:00,21.1,13.0,30.22,SE,136,0.0,1.0,71,0.00,,,0.00,weatherlink.com 1.10,2013-01-13 09:18:00,
2013-01-13 01:33:00,21.5,13.0,30.22,SE,138,0.0,2.0,70,0.00,,,0.00,weatherlink.com 1.10,2013-01-13 09:33:00,
2013-01-13 01:48:00,21.7,13.0,30.23,ESE,112,1.0,4.0,70,0.00,,,0.00,weatherlink.com 1.10,2013-01-13 09:48:00,
2013-01-13 02:03:00,21.7,14.0,30.23,ESE,123,1.0,2.0,71,0.00,,,0.00,weatherlink.com 1.10,2013-01-13 10:03:00,
2013-01-13 02:18:00,21.7,13.0,30.23,SE,142,1.0,3.0,68,0.00,,,0.00,weatherlink.com 1.10,2013-01-13 10:18:00,
2013-01-13 02:33:00,21.4,13.0,30.23,SE,143,1.0,2.0,70,0.00,,,0.00,weatherlink.com 1.10,2013-01-13 10:33:00,
2013-01-13 02:48:00,21.3,13.0,30.23,SE,136,2.0,2.0,71,0.00,,,0.00,weatherlink.com 1.10,2013-01-13 10:48:00,
2013-01-13 03:03:00,20.9,13.0,30.23,SE,134,1.0,2.0,72,0.00,,,0.00,weatherlink.com 1.10,2013-01-13 11:03:00,
2013-01-13 03:18:00,21.0,13.0,30.22,SE,134,1.0,2.0,70,0.00,,,0.00,weatherlink.com 1.10,2013-01-13 11:18:00,
2013-01-13 03:33:00,20.8,14.0,30.22,SE,141,2.0,2.0,74,0.00,,,0.00,weatherlink.com 1.10,2013-01-13 11:33:00,
2013-01-13 03:48:00,21.0,12.0,30.22,SSE,158,0.0,2.0,67,0.00,,,0.00,weatherlink.com 1.10,2013-01-13 11:48:00,
2013-01-13 04:03:00,21.0,12.0,30.21,SE,139,1.0,2.0,68,0.00,,,0.00,weatherlink.com 1.10,2013-01-13 12:03:00,
2013-01-13 04:18:00,20.5,12.0,30.21,SE,135,2.0,2.0,70,0.00,,,0.00,weatherlink.com 1.10,2013-01-13 12:18:00,
2013-01-13 04:33:00,21.1,11.0,30.21,SE,124,2.0,3.0,66,0.00,,,0.00,weatherlink.com 1.10,2013-01-13 12:33:00,
2013-01-13 04:48:00,20.7,12.0,30.22,SE,143,1.0,3.0,68,0.00,,,0.00,weatherlink.com 1.10,2013-01-13 12:48:00,
2013-01-13 05:03:00,20.5,11.0,30.22,SE,136,1.0,3.0,68,0.00,,,0.00,weatherlink.com 1.10,2013-01-13 13:03:00,
2013-01-13 05:18:00,20.7,12.0,30.23,SE,145,1.0,3.0,70,0.00,,,0.00,weatherlink.com 1.10,2013-01-13 13:18:00,
2013-01-13 05:33:00,20.2,12.0,30.23,SE,135,1.0,3.0,71,0.00,,,0.00,weatherlink.com 1.10,2013-01-13 13:33:00,
2013-01-13 05:48:00,20.4,12.0,30.24,SE,146,1.0,2.0,70,0.00,,,0.00,weatherlink.com 1.10,2013-01-13 13:48:00,
2013-01-13 06:03:00,20.5,11.0,30.25,SE,139,2.0,2.0,67,0.00,,,0.00,weatherlink.com 1.10,2013-01-13 14:03:00,
2013-01-13 06:18:00,20.3,12.0,30.25,SE,136,1.0,2.0,70,0.00,,,0.00,weatherlink.com 1.10,2013-01-13 14:18:00,
2013-01-13 06:33:00,20.1,12.0,30.25,ESE,120,1.0,2.0,70,0.00,,,0.00,weatherlink.com 1.10,2013-01-13 14:33:00,
2013-01-13 06:48:00,20.1,11.0,30.26,SE,142,2.0,2.0,68,0.00,,,0.00,weatherlink.com 1.10,2013-01-13 14:48:00,
2013-01-13 07:03:00,20.4,11.0,30.26,SE,128,1.0,2.0,68,0.00,,,0.00,weatherlink.com 1.10,2013-01-13 15:03:00,
2013-01-13 07:18:00,20.4,12.0,30.26,SSE,153,2.0,3.0,69,0.00,,,0.00,weatherlink.com 1.10,2013-01-13 15:18:00,
2013-01-13 07:33:00,20.6,14.0,30.27,ESE,118,2.0,2.0,74,0.00,,,0.00,weatherlink.com 1.10,2013-01-13 15:33:00,
2013-01-13 07:49:00,21.2,11.0,30.27,SE,132,1.0,2.0,66,0.00,,,0.00,weatherlink.com 1.10,2013-01-13 15:49:00,
2013-01-13 08:04:00,21.4,11.0,30.27,SE,145,2.0,4.0,65,0.00,,,0.00,weatherlink.com 1.10,2013-01-13 16:04:00,
2013-01-13 08:19:00,21.7,12.0,30.27,SE,129,0.0,2.0,66,0.00,,,0.00,weatherlink.com 1.10,2013-01-13 16:19:00,
2013-01-13 08:34:00,21.9,12.0,30.27,ESE,119,1.0,2.0,65,0.00,,,0.00,weatherlink.com 1.10,2013-01-13 16:34:00,
2013-01-13 08:49:00,22.4,11.0,30.27,SE,143,2.0,2.0,63,0.00,,,0.00,weatherlink.com 1.10,2013-01-13 16:49:00,
2013-01-13 09:04:00,22.6,11.0,30.27,SE,139,2.0,3.0,62,0.00,,,0.00,weatherlink.com 1.10,2013-01-13 17:04:00,
2013-01-13 09:19:00,22.5,13.0,30.27,SSE,148,2.0,2.0,66,0.00,,,0.00,weatherlink.com 1.10,2013-01-13 17:19:00,
2013-01-13 09:34:00,22.7,13.0,30.27,SE,146,2.0,3.0,65,0.00,,,0.00,weatherlink.com 1.10,2013-01-13 17:34:00,
2013-01-13 09:49:00,22.9,13.0,30.27,SE,145,2.0,2.0,67,0.00,,,0.00,weatherlink.com 1.10,2013-01-13 17:49:00,
2013-01-13 10:04:00,23.1,14.0,30.27,SSE,158,1.0,2.0,67,0.00,,,0.00,weatherlink.com 1.10,2013-01-13 18:04:00,
2013-01-13 10:19:00,23.4,14.0,30.26,SSE,160,1.0,2.0,68,0.00,,,0.00,weatherlink.com 1.10,2013-01-13 18:19:00,
2013-01-13 10:34:00,24.2,15.0,30.25,SE,143,1.0,3.0,68,0.00,,,0.00,weatherlink.com 1.10,2013-01-13 18:34:00,
2013-01-13 10:49:00,25.6,14.0,30.25,ESE,119,0.0,4.0,61,0.00,,,0.00,weatherlink.com 1.10,2013-01-13 18:49:00,
2013-01-13 11:04:00,30.7,8.0,30.24,SW,221,0.0,5.0,39,0.00,,,0.00,weatherlink.com 1.10,2013-01-13 19:04:00,
2013-01-13 11:19:00,33.1,9.0,30.23,North,356,1.0,6.0,36,0.00,,,0.00,weatherlink.com 1.10,2013-01-13 19:19:00,
2013-01-13 11:34:00,33.5,8.0,30.23,East,80,2.0,5.0,34,0.00,,,0.00,weatherlink.com 1.10,2013-01-13 19:34:00,
2013-01-13 11:49:00,33.8,9.0,30.21,NE,56,3.0,5.0,35,0.00,,,0.00,weatherlink.com 1.10,2013-01-13 19:49:00,
2013-01-13 12:04:00,34.1,9.0,30.20,NNW,335,4.0,5.0,35,0.00,,,0.00,weatherlink.com 1.10,2013-01-13 20:04:00,
2013-01-13 12:19:00,34.5,9.0,30.18,East,83,1.0,4.0,35,0.00,,,0.00,weatherlink.com 1.10,2013-01-13 20:19:00,
2013-01-13 12:34:00,34.5,9.0,30.17,NNE,30,3.0,4.0,35,0.00,,,0.00,weatherlink.com 1.10,2013-01-13 20:34:00,
2013-01-13 12:49:00,34.5,9.0,30.17,NE,56,3.0,7.0,35,0.00,,,0.00,weatherlink.com 1.10,2013-01-13 20:49:00,
2013-01-13 13:04:00,35.1,11.0,30.17,SSW,210,0.0,5.0,37,0.00,,,0.00,weatherlink.com 1.10,2013-01-13 21:04:00,
2013-01-13 13:19:00,35.1,9.0,30.17,SSE,148,2.0,7.0,34,0.01,,,0.01,weatherlink.com 1.10,2013-01-13 21:19:00,
2013-01-13 13:34:00,34.9,9.0,30.17,NW,316,2.0,8.0,34,0.01,,,0.01,weatherlink.com 1.10,2013-01-13 21:34:00,
2013-01-13 13:49:00,34.6,11.0,30.17,WNW,290,1.0,3.0,38,0.01,,,0.01,weatherlink.com 1.10,2013-01-13 21:49:00,
2013-01-13 14:04:00,33.8,9.0,30.18,NNW,330,0.0,6.0,35,0.01,,,0.01,weatherlink.com 1.10,2013-01-13 22:04:00,
2013-01-13 14:19:00,33.8,9.0,30.18,North,1,6.0,7.0,36,0.00,,,0.01,weatherlink.com 1.10,2013-01-13 22:19:00,
2013-01-13 14:34:00,33.3,9.0,30.19,NNE,13,3.0,6.0,36,0.00,,,0.01,weatherlink.com 1.10,2013-01-13 22:34:00,
2013-01-13 14:49:00,33.5,10.0,30.18,NE,44,1.0,3.0,38,0.00,,,0.01,weatherlink.com 1.10,2013-01-13 22:49:00,
2013-01-13 15:04:00,33.8,9.0,30.17,ENE,58,3.0,4.0,36,0.00,,,0.01,weatherlink.com 1.10,2013-01-13 23:04:00,
2013-01-13 15:19:00,33.5,10.0,30.18,ENE,68,3.0,7.0,37,0.00,,,0.01,weatherlink.com 1.10,2013-01-13 23:19:00,
2013-01-13 15:34:00,33.1,11.0,30.17,West,267,0.0,4.0,40,0.00,,,0.01,weatherlink.com 1.10,2013-01-13 23:34:00,
2013-01-13 15:49:00,32.6,11.0,30.18,WNW,297,0.0,0.0,41,0.00,,,0.01,weatherlink.com 1.10,2013-01-13 23:49:00,
2013-01-13 16:04:00,32.0,15.0,30.17,North,9,0.0,0.0,49,0.00,,,0.01,weatherlink.com 1.10,2013-01-14 00:04:00,
2013-01-13 16:19:00,31.1,13.0,30.17,NE,47,0.0,0.0,47,0.00,,,0.01,weatherlink.com 1.10,2013-01-14 00:19:00,
2013-01-13 16:34:00,30.2,15.0,30.17,ESE,108,0.0,0.0,54,0.00,,,0.01,weatherlink.com 1.10,2013-01-14 00:34:00,
2013-01-13 16:49:00,29.3,18.0,30.17,SSE,158,0.0,0.0,63,0.00,,,0.01,weatherlink.com 1.10,2013-01-14 00:49:00,
2013-01-13 17:04:00,28.5,16.0,30.17,SSE,155,0.0,0.0,60,0.00,,,0.01,weatherlink.com 1.10,2013-01-14 01:04:00,
2013-01-13 17:19:00,27.7,17.0,30.17,SSW,204,0.0,3.0,64,0.00,,,0.01,weatherlink.com 1.10,2013-01-14 01:19:00,
2013-01-13 17:34:00,27.2,16.0,30.18,SE,134,1.0,2.0,63,0.00,,,0.01,weatherlink.com 1.10,2013-01-14 01:34:00,
2013-01-13 17:50:00,26.9,15.0,30.18,SE,136,0.0,2.0,62,0.00,,,0.01,weatherlink.com 1.10,2013-01-14 01:50:00,
2013-01-13 18:05:00,26.0,15.0,30.18,SSE,158,2.0,2.0,64,0.00,,,0.01,weatherlink.com 1.10,2013-01-14 02:05:00,
2013-01-13 18:20:00,25.4,15.0,30.18,SE,141,1.0,2.0,64,0.00,,,0.01,weatherlink.com 1.10,2013-01-14 02:20:00,
2013-01-13 18:35:00,24.8,15.0,30.18,SSE,148,0.0,2.0,65,0.00,,,0.01,weatherlink.com 1.10,2013-01-14 02:35:00,
2013-01-13 18:50:00,24.6,14.0,30.18,SSE,158,1.0,2.0,63,0.00,,,0.01,weatherlink.com 1.10,2013-01-14 02:50:00,
2013-01-13 19:05:00,24.3,14.0,30.18,SE,143,1.0,2.0,64,0.00,,,0.01,weatherlink.com 1.10,2013-01-14 03:05:00,
2013-01-13 19:20:00,24.1,14.0,30.19,SE,145,1.0,2.0,65,0.00,,,0.01,weatherlink.com 1.10,2013-01-14 03:20:00,
2013-01-13 19:35:00,23.9,14.0,30.19,ESE,115,1.0,2.0,65,0.00,,,0.01,weatherlink.com 1.10,2013-01-14 03:35:00,
2013-01-13 19:50:00,23.5,14.0,30.18,SW,226,1.0,1.0,66,0.00,,,0.01,weatherlink.com 1.10,2013-01-14 03:50:00,
2013-01-13 20:05:00,23.5,14.0,30.19,South,173,2.0,2.0,66,0.00,,,0.01,weatherlink.com 1.10,2013-01-14 04:05:00,
2013-01-13 20:20:00,23.2,14.0,30.19,SSE,153,2.0,2.0,67,0.00,,,0.01,weatherlink.com 1.10,2013-01-14 04:20:00,
2013-01-13 20:35:00,23.1,14.0,30.19,South,169,0.0,2.0,68,0.00,,,0.01,weatherlink.com 1.10,2013-01-14 04:35:00,
2013-01-13 20:50:00,22.9,14.0,30.20,SSE,158,0.0,2.0,68,0.00,,,0.01,weatherlink.com 1.10,2013-01-14 04:50:00,
2013-01-13 21:05:00,22.8,14.0,30.19,SSE,150,2.0,3.0,68,0.00,,,0.01,weatherlink.com 1.10,2013-01-14 05:05:00,
2013-01-13 21:20:00,22.5,14.0,30.20,SE,136,1.0,3.0,70,0.00,,,0.01,weatherlink.com 1.10,2013-01-14 05:20:00,
2013-01-13 21:35:00,22.6,13.0,30.20,SE,143,0.0,1.0,67,0.00,,,0.01,weatherlink.com 1.10,2013-01-14 05:35:00,
2013-01-13 21:50:00,22.6,13.0,30.20,SSE,155,1.0,3.0,67,0.00,,,0.01,weatherlink.com 1.10,2013-01-14 05:50:00,
2013-01-13 22:05:00,22.6,12.0,30.21,SSE,159,1.0,2.0,65,0.00,,,0.01,weatherlink.com 1.10,2013-01-14 06:05:00,
2013-01-13 22:20:00,22.5,12.0,30.21,SSE,150,1.0,3.0,65,0.00,,,0.01,weatherlink.com 1.10,2013-01-14 06:20:00,
2013-01-13 22:35:00,22.0,13.0,30.21,ESE,122,2.0,2.0,67,0.00,,,0.01,weatherlink.com 1.10,2013-01-14 06:35:00,
2013-01-13 22:50:00,22.0,13.0,30.22,SSE,154,1.0,3.0,67,0.00,,,0.01,weatherlink.com 1.10,2013-01-14 06:50:00,
2013-01-13 23:05:00,21.3,13.0,30.23,SSE,159,1.0,2.0,69,0.00,,,0.01,weatherlink.com 1.10,2013-01-14 07:05:00,
2013-01-13 23:20:00,21.1,12.0,30.23,ESE,105,2.0,2.0,69,0.00,,,0.01,weatherlink.com 1.10,2013-01-14 07:20:00,
2013-01-13 23:35:00,20.6,12.0,30.24,SE,146,1.0,3.0,70,0.00,,,0.01,weatherlink.com 1.10,2013-01-14 07:35:00,
2013-01-13 23:50:00,20.5,11.0,30.24,SSE,150,1.0,2.0,67,0.00,,,0.01,weatherlink.com 1.10,2013-01-14 07:50:00,